Detall de PIREP

Printer-friendly versionPDF version

[2013/09/28 14:59:00]
Flight IATA:CT1001
Pilot Number:012
Company ICAO:CAT
Aircraft Type:F28/A
PAX:85
Departing Airport: LICD
Destination Airport: LIEA
Alternate Airport:LIEO
Online: VATSIM
Route:VERAK UM740 MEGAN UM732 SODIO
Flight Level:F260
No Slew and time accel
No pause
Crash detect
Detect pilot in Cockpit between each 30 and 45 minutes
14:59 Zero fuel Weight: 52906 Lbs, Fuel Weight: 9537 Lbs
14:59 VATSIM:LICD 281350Z 15011KT CAVOK 27/23 Q1013
14:59 VATSIM:LIEA 281420Z 19008KT CAVOK 29/15 Q1010
14:59 VOICE CATALONIAN / MEDITERRANEAN ODYSSEY
15:04 Parking Brakes off
15:09 Take-off
15:09 Take off Weight: 62031 Lbs
15:09 Wind: 148º @ 011 Knots Heading: 080º
15:09 POS N35º 29´ 51´´ E012º 37´ 20´´
15:09 Gear Up: 159 Knots
15:22 TOC
15:22 Fuel Weight: 7518 Lb
15:24 Wind:292º@011 Knots Heading: 336º Ground Speed: 382 Knots Altitude 25987 ft
15:39 Wind:286º@024 Knots Heading: 307º Ground Speed: 448 Knots Altitude 25941 ft
15:54 Wind:259º@028 Knots Heading: 326º Ground Speed: 457 Knots Altitude 25925 ft
15:57 TOD
15:57 Fuel Weight: 4518 Lb
16:09 Wind:221º@008 Knots Heading: 035º Ground Speed: 242 Knots Altitude 3812 ft
16:12 Flaps:1 at 185 Knots
16:13 Flaps:2 at 164 Knots
16:13 Gear Down: 145 Knots
16:13 Flaps:3 at 144 Knots
16:13 Flaps:4 at 148 Knots
16:14 Flaps:5 at 135 Knots
16:17 TouchDown:Rate -180 ft/min Speed: 108 Knots
16:17 VATSIM:LIEA 281550Z 24008KT 200V260 CAVOK 27/19 Q1011
16:17 Land
16:17 Wind:248º@008 Knots
16:17 Heading: 198º
16:17 Flight Duration: 01:08
16:17 Landing Weight: 56685 Lbs
16:17 POS N40º 37´ 57´´ E008º 17´ 27´´
16:20 Parking brakes on
16:20 Block to Block Duration: 01:16
16:20 Final Fuel: 3681 Lbls
16:20 Spent Fuel: 5855 Lbls
16:20 Flight Length: 419 NM
16:20 TOD Land Length: 90 NM

Exportar CSV

Powered by Drupal - Modified by Danger4k